createdAt,value
2023-05-10T00:02:03.997Z,15.95
2023-05-10T00:05:06.222Z,16.30
2023-05-10T00:08:08.163Z,16.19
2023-05-10T00:11:10.041Z,16.30
2023-05-10T00:14:12.247Z,16.07
2023-05-10T00:17:14.074Z,16.16
2023-05-10T00:20:16.454Z,15.91
2023-05-10T00:23:18.588Z,15.92
2023-05-10T00:26:20.993Z,15.77
2023-05-10T00:29:25.185Z,15.70
2023-05-10T00:32:27.215Z,15.53
2023-05-10T00:35:29.306Z,15.67
2023-05-10T00:38:31.278Z,15.56
2023-05-10T00:41:33.775Z,15.46
2023-05-10T00:44:35.666Z,15.43
2023-05-10T00:47:37.683Z,15.41
2023-05-10T00:50:41.088Z,15.36
2023-05-10T00:53:45.095Z,14.47
2023-05-10T00:56:49.865Z,14.51
2023-05-10T00:59:51.811Z,15.28
2023-05-10T01:02:54.489Z,14.97
2023-05-10T01:05:56.509Z,14.87
2023-05-10T01:08:58.377Z,15.13
2023-05-10T01:12:00.546Z,15.25
2023-05-10T01:15:02.690Z,15.21
2023-05-10T01:18:04.642Z,14.57
2023-05-10T01:21:10.821Z,15.24
2023-05-10T01:24:12.628Z,15.30
2023-05-10T01:27:14.476Z,15.30
2023-05-10T01:30:35.243Z,15.51
2023-05-10T01:33:40.717Z,14.78
2023-05-10T01:36:54.963Z,15.28
2023-05-10T01:39:59.695Z,15.14
2023-05-10T01:43:02.716Z,15.33
2023-05-10T01:46:11.986Z,15.14
2023-05-10T01:49:19.632Z,15.23
2023-05-10T01:52:23.923Z,14.61
2023-05-10T01:55:27.470Z,15.45
2023-05-10T01:58:33.224Z,15.53
2023-05-10T02:01:35.199Z,15.44
2023-05-10T02:04:37.187Z,15.41
2023-05-10T02:07:39.136Z,15.30
2023-05-10T02:10:41.185Z,15.19
2023-05-10T02:13:43.833Z,15.05
2023-05-10T02:16:45.763Z,15.33
2023-05-10T02:19:47.588Z,15.16
2023-05-10T02:22:49.993Z,15.13
2023-05-10T02:25:54.199Z,15.19
2023-05-10T02:28:56.157Z,15.14
2023-05-10T02:31:58.132Z,14.93
2023-05-10T02:35:00.078Z,15.23
2023-05-10T02:38:02.121Z,15.08
2023-05-10T02:41:04.151Z,15.36
2023-05-10T02:44:06.473Z,15.06
2023-05-10T02:47:08.381Z,15.08
2023-05-10T02:50:10.641Z,15.34
2023-05-10T02:53:13.129Z,15.25
2023-05-10T02:56:16.466Z,14.92
2023-05-10T02:59:18.454Z,15.12
2023-05-10T03:02:21.178Z,15.45
2023-05-10T03:05:23.103Z,15.37
2023-05-10T03:08:25.133Z,15.09
2023-05-10T03:11:35.891Z,15.13
2023-05-10T03:14:40.756Z,15.22
2023-05-10T03:18:12.231Z,15.03
2023-05-10T03:21:16.661Z,14.82
2023-05-10T03:24:21.074Z,14.85
2023-05-10T03:27:23.403Z,14.83
2023-05-10T03:30:25.448Z,14.70
2023-05-10T03:33:27.415Z,15.06
2023-05-10T03:36:29.329Z,14.86
2023-05-10T03:39:31.166Z,14.74
2023-05-10T03:42:33.274Z,14.73
2023-05-10T03:45:35.963Z,14.62
2023-05-10T03:48:37.958Z,14.56
2023-05-10T03:51:39.802Z,15.15
2023-05-10T03:54:41.902Z,15.17
2023-05-10T03:57:43.888Z,14.88
2023-05-10T04:00:46.157Z,15.35
2023-05-10T04:03:50.254Z,14.73
2023-05-10T04:06:52.182Z,15.04
2023-05-10T04:09:54.057Z,15.15
2023-05-10T04:12:56.000Z,15.26
2023-05-10T04:15:58.098Z,15.35
2023-05-10T04:19:00.756Z,15.52
2023-05-10T04:22:03.187Z,15.27
2023-05-10T04:25:05.667Z,15.33
2023-05-10T04:28:07.516Z,15.43
2023-05-10T04:31:09.987Z,15.31
2023-05-10T04:34:11.905Z,15.25
2023-05-10T04:37:13.805Z,15.21
2023-05-10T04:40:15.924Z,14.66
2023-05-10T04:43:18.124Z,15.34
2023-05-10T04:46:19.946Z,15.30
2023-05-10T04:49:21.993Z,14.82
2023-05-10T04:52:23.971Z,15.53
2023-05-10T04:55:26.083Z,16.67
2023-05-10T04:58:28.421Z,17.70
2023-05-10T05:01:30.469Z,17.98
2023-05-10T05:04:32.805Z,18.36
2023-05-10T05:07:34.767Z,18.63
2023-05-10T05:10:36.623Z,17.97
2023-05-10T05:13:38.612Z,17.92
2023-05-10T05:16:40.717Z,17.67
2023-05-10T05:19:42.744Z,17.24
2023-05-10T05:22:44.585Z,17.22
2023-05-10T05:25:46.552Z,17.49
2023-05-10T05:28:49.766Z,17.20
2023-05-10T05:31:53.419Z,17.31
2023-05-10T05:34:56.640Z,16.75
2023-05-10T05:37:58.613Z,16.62
2023-05-10T05:41:00.414Z,17.28
2023-05-10T05:44:02.471Z,17.66
2023-05-10T05:47:04.326Z,18.17
2023-05-10T05:50:09.063Z,18.08
2023-05-10T05:53:10.888Z,19.07
2023-05-10T05:56:12.766Z,19.71
2023-05-10T05:59:14.950Z,19.65
2023-05-10T06:02:17.127Z,19.02
2023-05-10T06:05:19.274Z,19.18
2023-05-10T06:08:23.943Z,19.34
2023-05-10T06:11:26.458Z,19.33
2023-05-10T06:14:28.825Z,20.52
2023-05-10T06:17:30.912Z,20.10
2023-05-10T06:20:32.972Z,20.46
2023-05-10T06:23:34.901Z,20.88
2023-05-10T06:26:36.964Z,21.26
2023-05-10T06:29:38.907Z,21.14
2023-05-10T06:32:41.060Z,21.39
2023-05-10T06:35:43.980Z,20.31
2023-05-10T06:38:45.896Z,19.02
2023-05-10T06:41:47.838Z,20.12
2023-05-10T06:44:49.676Z,20.82
2023-05-10T06:47:51.682Z,21.54
2023-05-10T06:50:53.651Z,21.74
2023-05-10T06:53:55.542Z,21.93
2023-05-10T06:56:57.503Z,22.08
2023-05-10T06:59:59.944Z,21.25
2023-05-10T07:03:05.006Z,21.94
2023-05-10T07:06:21.719Z,21.00
2023-05-10T07:09:27.771Z,22.59
2023-05-10T07:12:29.724Z,21.88
2023-05-10T07:15:31.697Z,22.48
2023-05-10T07:18:33.635Z,23.21
2023-05-10T07:21:36.518Z,24.12
2023-05-10T07:24:38.770Z,23.75
2023-05-10T07:27:40.917Z,22.80
2023-05-10T07:30:43.098Z,22.43
2023-05-10T07:33:45.102Z,21.39
2023-05-10T07:36:46.983Z,21.90
2023-05-10T07:39:48.932Z,23.47
2023-05-10T07:42:50.871Z,23.72
2023-05-10T07:45:55.440Z,23.60
2023-05-10T07:48:58.232Z,23.83
2023-05-10T07:52:00.122Z,23.12
2023-05-10T07:55:05.549Z,22.48
2023-05-10T07:58:07.367Z,23.16
2023-05-10T08:01:09.639Z,22.36
2023-05-10T08:04:12.747Z,22.08
2023-05-10T08:07:14.885Z,23.21
2023-05-10T08:10:18.327Z,23.01
2023-05-10T08:13:20.391Z,22.29
2023-05-10T08:16:22.407Z,21.23
2023-05-10T08:19:25.626Z,21.86
2023-05-10T08:22:34.959Z,21.20
2023-05-10T08:25:37.098Z,22.16
2023-05-10T08:28:39.392Z,21.94
2023-05-10T08:31:41.364Z,22.77
2023-05-10T08:34:43.739Z,22.30
2023-05-10T08:37:46.399Z,23.38
2023-05-10T08:40:48.309Z,23.00
2023-05-10T08:43:51.078Z,23.61
2023-05-10T08:46:53.217Z,22.35
2023-05-10T08:49:55.077Z,21.96
2023-05-10T08:52:57.653Z,21.56
2023-05-10T08:55:59.558Z,21.50
2023-05-10T08:59:01.499Z,21.55
2023-05-10T09:02:03.708Z,23.13
2023-05-10T09:05:06.533Z,23.54
2023-05-10T09:08:09.203Z,23.75
2023-05-10T09:11:11.606Z,24.72
2023-05-10T09:14:13.686Z,24.16
2023-05-10T09:17:16.128Z,25.08
2023-05-10T09:20:24.286Z,26.25
2023-05-10T09:23:32.408Z,26.27
2023-05-10T09:26:34.826Z,25.37
2023-05-10T09:29:40.682Z,23.81
2023-05-10T09:32:44.337Z,23.98
2023-05-10T09:35:46.795Z,26.02
2023-05-10T09:38:49.629Z,25.98
2023-05-10T09:41:52.044Z,26.65
2023-05-10T09:44:54.094Z,26.08
2023-05-10T09:47:56.686Z,25.20
2023-05-10T09:50:59.383Z,24.26
2023-05-10T09:54:14.623Z,23.82
2023-05-10T09:57:20.100Z,24.01
2023-05-10T10:00:22.053Z,25.85
2023-05-10T10:03:30.292Z,24.74
2023-05-10T10:06:46.115Z,26.42
2023-05-10T10:09:48.391Z,23.97
2023-05-10T10:12:50.470Z,24.72
2023-05-10T10:15:53.440Z,24.24
2023-05-10T10:18:55.526Z,24.71
2023-05-10T10:21:58.251Z,26.85
2023-05-10T10:25:00.893Z,27.95
2023-05-10T10:28:07.602Z,27.18
2023-05-10T10:31:30.236Z,25.98
2023-05-10T10:34:32.860Z,25.60
2023-05-10T10:37:47.877Z,26.10
2023-05-10T10:40:50.414Z,27.64
2023-05-10T10:44:24.539Z,27.61
2023-05-10T10:47:31.079Z,26.97
2023-05-10T10:50:33.105Z,25.37
2023-05-10T10:53:35.774Z,25.99
2023-05-10T10:56:37.925Z,25.19
2023-05-10T10:59:45.196Z,24.45
2023-05-10T11:02:49.961Z,24.68
2023-05-10T11:06:01.416Z,23.80
2023-05-10T11:09:10.213Z,26.48
2023-05-10T11:12:12.628Z,24.54
2023-05-10T11:15:14.961Z,24.70
2023-05-10T11:21:18.705Z,25.13
2023-05-10T11:24:21.604Z,22.87
2023-05-10T11:27:26.381Z,22.61
2023-05-10T11:30:28.461Z,21.46
2023-05-10T11:33:30.750Z,21.69
2023-05-10T11:36:39.550Z,21.32
2023-05-10T11:39:49.836Z,22.24
2023-05-10T11:42:51.914Z,22.07
2023-05-10T11:45:54.416Z,21.13
2023-05-10T11:49:02.538Z,22.66
2023-05-10T11:52:05.364Z,23.39
2023-05-10T11:55:10.500Z,22.87
2023-05-10T11:58:12.616Z,23.04
2023-05-10T12:01:14.582Z,21.48
2023-05-10T12:04:16.986Z,22.49
2023-05-10T12:07:19.815Z,21.71
2023-05-10T12:10:29.148Z,22.83
2023-05-10T12:13:31.293Z,21.44
2023-05-10T12:16:33.700Z,21.73
2023-05-10T12:19:39.757Z,21.63
2023-05-10T12:22:42.166Z,21.65
2023-05-10T12:25:44.349Z,21.83
2023-05-10T12:28:46.515Z,21.41
2023-05-10T12:31:54.847Z,21.75
2023-05-10T12:34:56.855Z,22.96
2023-05-10T12:37:58.880Z,22.68
2023-05-10T12:41:01.393Z,21.85
2023-05-10T12:44:03.259Z,22.03
2023-05-10T12:47:09.601Z,22.13
2023-05-10T12:50:12.383Z,22.01
2023-05-10T12:53:20.524Z,22.51
2023-05-10T12:56:22.594Z,22.19
2023-05-10T12:59:24.464Z,21.84
2023-05-10T13:02:26.470Z,22.36
2023-05-10T13:05:31.870Z,21.74
2023-05-10T13:08:34.786Z,22.38
2023-05-10T13:11:37.734Z,22.71
2023-05-10T13:14:41.762Z,22.85
2023-05-10T13:17:46.925Z,23.12
2023-05-10T13:20:50.647Z,22.93
2023-05-10T13:23:55.458Z,22.83
2023-05-10T13:26:57.599Z,23.42
2023-05-10T13:30:00.580Z,22.95
2023-05-10T13:33:02.793Z,23.08
2023-05-10T13:36:04.865Z,23.52
2023-05-10T13:39:12.526Z,23.28
2023-05-10T13:42:14.462Z,23.16
2023-05-10T13:45:20.187Z,22.02
2023-05-10T13:48:25.299Z,22.64
2023-05-10T13:51:30.373Z,22.68
2023-05-10T13:54:32.890Z,22.39
2023-05-10T13:57:36.958Z,23.07
2023-05-10T14:00:39.317Z,22.80
2023-05-10T14:03:41.452Z,22.62
2023-05-10T14:06:43.610Z,22.25
2023-05-10T14:09:45.962Z,21.88
2023-05-10T14:12:53.745Z,21.78
2023-05-10T14:15:55.960Z,21.88
2023-05-10T14:18:58.750Z,21.74
2023-05-10T14:22:01.114Z,21.60
2023-05-10T14:25:03.385Z,21.89
2023-05-10T14:28:10.200Z,21.85
2023-05-10T14:31:12.147Z,21.43
2023-05-10T14:34:16.377Z,21.42
2023-05-10T14:37:18.227Z,21.25
2023-05-10T14:40:20.092Z,20.93
2023-05-10T14:43:22.002Z,21.76
2023-05-10T14:46:23.952Z,21.80
2023-05-10T14:49:27.066Z,21.58
2023-05-10T14:52:29.198Z,21.48
2023-05-10T14:55:33.382Z,20.81
2023-05-10T14:58:35.285Z,21.24
2023-05-10T15:01:38.803Z,21.71
2023-05-10T15:04:41.347Z,21.23
2023-05-10T15:07:44.869Z,21.14
2023-05-10T15:10:46.987Z,20.39
2023-05-10T15:13:48.870Z,20.98
2023-05-10T15:16:50.826Z,21.04
2023-05-10T15:19:52.772Z,21.02
2023-05-10T15:22:54.967Z,20.93
2023-05-10T15:25:56.970Z,20.21
2023-05-10T15:29:01.145Z,20.53
2023-05-10T15:32:03.920Z,21.05
2023-05-10T15:35:06.066Z,20.79
2023-05-10T15:38:08.306Z,21.13
2023-05-10T15:41:10.440Z,19.92
2023-05-10T15:44:12.278Z,20.78
2023-05-10T15:47:14.339Z,20.54
2023-05-10T15:50:17.458Z,20.65
2023-05-10T15:53:19.431Z,21.20
2023-05-10T15:56:21.403Z,20.77
2023-05-10T15:59:23.350Z,20.85
2023-05-10T16:02:25.494Z,20.74
2023-05-10T16:05:32.201Z,21.10
2023-05-10T16:08:34.320Z,20.97
2023-05-10T16:11:36.409Z,21.01
2023-05-10T16:14:38.330Z,21.20
2023-05-10T16:17:40.249Z,21.07
2023-05-10T16:20:42.218Z,21.17
2023-05-10T16:23:46.736Z,20.83
2023-05-10T16:26:48.698Z,20.93
2023-05-10T16:29:50.739Z,21.24
2023-05-10T16:32:52.919Z,20.55
2023-05-10T16:35:54.855Z,20.50
2023-05-10T16:38:56.899Z,21.08
2023-05-10T16:41:58.787Z,20.37
2023-05-10T16:45:07.564Z,20.82
2023-05-10T16:48:09.547Z,20.49
2023-05-10T16:51:11.561Z,20.26
2023-05-10T16:54:13.551Z,19.95
2023-05-10T16:57:15.452Z,20.64
2023-05-10T17:00:17.510Z,20.91
2023-05-10T17:03:19.600Z,20.55
2023-05-10T17:06:21.769Z,19.46
2023-05-10T17:09:23.714Z,20.12
2023-05-10T17:12:26.115Z,20.02
2023-05-10T17:15:28.162Z,19.80
2023-05-10T17:18:30.240Z,19.77
2023-05-10T17:21:32.185Z,19.97
2023-05-10T17:24:34.202Z,19.81
2023-05-10T17:27:36.301Z,20.45
2023-05-10T17:30:38.317Z,19.61
2023-05-10T17:33:40.349Z,19.96
2023-05-10T17:36:42.558Z,20.22
2023-05-10T17:39:44.521Z,19.49
2023-05-10T17:42:46.504Z,19.46
2023-05-10T17:45:49.539Z,19.45
2023-05-10T17:48:51.457Z,19.24
2023-05-10T17:51:53.498Z,19.01
2023-05-10T17:54:55.444Z,19.16
2023-05-10T17:57:59.547Z,19.59
2023-05-10T18:01:01.657Z,19.19
2023-05-10T18:04:04.663Z,19.11
2023-05-10T18:07:06.853Z,19.32
2023-05-10T18:10:09.099Z,19.08
2023-05-10T18:13:11.297Z,18.50
2023-05-10T18:16:13.795Z,19.10
2023-05-10T18:19:16.018Z,18.86
2023-05-10T18:22:17.862Z,18.93
2023-05-10T18:25:20.156Z,19.27
2023-05-10T18:28:22.282Z,19.27
2023-05-10T18:31:24.790Z,18.62
2023-05-10T18:34:26.918Z,18.88
2023-05-10T18:37:28.836Z,18.98
2023-05-10T18:40:30.889Z,19.23
2023-05-10T18:43:35.904Z,18.93
2023-05-10T18:46:39.380Z,18.51
2023-05-10T18:49:41.391Z,18.55
2023-05-10T18:52:43.807Z,19.05
2023-05-10T18:55:46.630Z,18.83
2023-05-10T18:58:48.692Z,18.28
2023-05-10T19:01:51.282Z,18.70
2023-05-10T19:04:53.553Z,18.98
2023-05-10T19:07:58.565Z,19.11
2023-05-10T19:11:00.763Z,18.76
2023-05-10T19:14:02.849Z,19.26
2023-05-10T19:17:07.132Z,19.04
2023-05-10T19:20:11.535Z,18.97
2023-05-10T19:23:15.897Z,18.70
2023-05-10T19:26:17.920Z,19.42
2023-05-10T19:29:19.905Z,18.84
2023-05-10T19:32:23.147Z,18.53
2023-05-10T19:35:25.019Z,18.31
2023-05-10T19:38:27.322Z,18.16
2023-05-10T19:41:29.175Z,18.28
2023-05-10T19:44:31.239Z,18.74
2023-05-10T19:47:35.254Z,18.07
2023-05-10T19:50:38.500Z,17.93
2023-05-10T19:53:44.291Z,18.49
2023-05-10T19:56:46.151Z,18.24
2023-05-10T19:59:47.985Z,18.44
2023-05-10T20:02:50.148Z,17.93
2023-05-10T20:05:52.226Z,18.13
2023-05-10T20:08:54.218Z,18.75
2023-05-10T20:11:56.051Z,18.38
2023-05-10T20:14:58.244Z,17.84
2023-05-10T20:18:00.196Z,17.73
2023-05-10T20:21:02.404Z,17.55
2023-05-10T20:24:04.480Z,18.04
2023-05-10T20:27:06.613Z,18.02
2023-05-10T20:30:09.670Z,18.29
2023-05-10T20:33:11.567Z,18.50
2023-05-10T20:36:14.120Z,17.62
2023-05-10T20:39:16.302Z,17.81
2023-05-10T20:42:18.426Z,18.56
2023-05-10T20:45:20.406Z,18.85
2023-05-10T20:48:22.417Z,17.95
2023-05-10T20:51:24.352Z,17.95
2023-05-10T20:54:26.416Z,18.02
2023-05-10T20:57:28.333Z,18.13
2023-05-10T21:00:30.363Z,17.63
2023-05-10T21:03:32.484Z,18.10
2023-05-10T21:06:34.469Z,17.37
2023-05-10T21:09:36.312Z,18.01
2023-05-10T21:12:38.763Z,17.75
2023-05-10T21:15:40.895Z,17.71
2023-05-10T21:18:43.338Z,17.65
2023-05-10T21:21:45.206Z,17.64
2023-05-10T21:24:47.113Z,17.62
2023-05-10T21:27:49.207Z,17.58
2023-05-10T21:30:51.488Z,17.64
2023-05-10T21:33:53.357Z,18.03
2023-05-10T21:36:55.282Z,17.52
2023-05-10T21:39:57.264Z,17.62
2023-05-10T21:42:59.182Z,17.27
2023-05-10T21:46:01.441Z,17.36
2023-05-10T21:49:03.483Z,17.19
2023-05-10T21:52:05.692Z,17.14
2023-05-10T21:55:08.717Z,17.20
2023-05-10T21:58:11.059Z,17.37
2023-05-10T22:01:14.766Z,17.44
2023-05-10T22:04:16.739Z,17.05
2023-05-10T22:07:18.604Z,17.80
2023-05-10T22:10:20.801Z,17.29
2023-05-10T22:13:23.255Z,16.98
2023-05-10T22:16:25.274Z,16.76
2023-05-10T22:19:27.309Z,16.77
2023-05-10T22:22:29.223Z,17.43
2023-05-10T22:25:31.716Z,17.19
2023-05-10T22:28:33.724Z,17.70
2023-05-10T22:31:36.142Z,18.10
2023-05-10T22:34:38.169Z,17.83
2023-05-10T22:37:40.035Z,17.72
2023-05-10T22:40:42.435Z,17.63
2023-05-10T22:43:45.677Z,17.60
2023-05-10T22:46:47.759Z,17.83
2023-05-10T22:49:49.658Z,17.87
2023-05-10T22:52:51.625Z,17.42
2023-05-10T22:55:53.638Z,17.58
2023-05-10T22:58:55.621Z,17.05
2023-05-10T23:01:57.575Z,17.51
2023-05-10T23:04:59.611Z,17.81
2023-05-10T23:08:01.556Z,17.10
2023-05-10T23:11:03.442Z,17.38
2023-05-10T23:14:05.375Z,16.82
2023-05-10T23:17:07.566Z,16.76
2023-05-10T23:20:10.302Z,17.14
2023-05-10T23:23:12.274Z,17.54
2023-05-10T23:26:20.472Z,17.99
2023-05-10T23:29:23.981Z,17.29
2023-05-10T23:32:28.474Z,17.23
2023-05-10T23:35:30.609Z,17.57
2023-05-10T23:38:32.594Z,17.25
2023-05-10T23:41:34.618Z,17.06
2023-05-10T23:44:36.495Z,17.15
2023-05-10T23:47:38.397Z,16.41
2023-05-10T23:50:44.194Z,15.97
2023-05-10T23:53:46.213Z,16.10
2023-05-10T23:56:50.787Z,16.25
2023-05-10T23:59:52.737Z,16.23
